sensor_id;sensor_type;location;lat;lon;timestamp;P1;durP1;ratioP1;P2;durP2;ratioP2
20727;SDS011;10525;50.154;8.198;2022-08-03T00:00:48;2.70;;;2.30;;
20727;SDS011;10525;50.154;8.198;2022-08-03T00:03:16;2.67;;;2.58;;
20727;SDS011;10525;50.154;8.198;2022-08-03T00:05:43;2.70;;;2.60;;
20727;SDS011;10525;50.154;8.198;2022-08-03T00:08:09;2.65;;;2.40;;
20727;SDS011;10525;50.154;8.198;2022-08-03T00:10:36;2.75;;;2.65;;
20727;SDS011;10525;50.154;8.198;2022-08-03T00:13:03;2.80;;;2.70;;
20727;SDS011;10525;50.154;8.198;2022-08-03T00:15:29;2.47;;;2.38;;
20727;SDS011;10525;50.154;8.198;2022-08-03T00:17:56;2.90;;;2.70;;
20727;SDS011;10525;50.154;8.198;2022-08-03T00:20:24;2.90;;;2.80;;
20727;SDS011;10525;50.154;8.198;2022-08-03T00:22:51;3.15;;;2.75;;
20727;SDS011;10525;50.154;8.198;2022-08-03T00:25:17;2.95;;;2.85;;
20727;SDS011;10525;50.154;8.198;2022-08-03T00:27:44;2.75;;;2.58;;
20727;SDS011;10525;50.154;8.198;2022-08-03T00:30:11;2.65;;;2.58;;
20727;SDS011;10525;50.154;8.198;2022-08-03T00:32:37;2.60;;;2.45;;
20727;SDS011;10525;50.154;8.198;2022-08-03T00:35:04;2.35;;;2.35;;
20727;SDS011;10525;50.154;8.198;2022-08-03T00:37:33;2.67;;;2.58;;
20727;SDS011;10525;50.154;8.198;2022-08-03T00:39:59;2.50;;;2.50;;
20727;SDS011;10525;50.154;8.198;2022-08-03T00:42:26;2.60;;;2.50;;
20727;SDS011;10525;50.154;8.198;2022-08-03T00:44:53;4.82;;;2.50;;
20727;SDS011;10525;50.154;8.198;2022-08-03T00:47:19;2.40;;;2.30;;
20727;SDS011;10525;50.154;8.198;2022-08-03T00:49:46;2.83;;;2.72;;
20727;SDS011;10525;50.154;8.198;2022-08-03T00:52:13;2.80;;;2.70;;
20727;SDS011;10525;50.154;8.198;2022-08-03T00:54:42;2.47;;;2.38;;
20727;SDS011;10525;50.154;8.198;2022-08-03T00:57:09;2.22;;;2.13;;
20727;SDS011;10525;50.154;8.198;2022-08-03T00:59:35;3.35;;;2.60;;
20727;SDS011;10525;50.154;8.198;2022-08-03T01:02:03;2.88;;;2.78;;
20727;SDS011;10525;50.154;8.198;2022-08-03T01:04:30;2.90;;;2.70;;
20727;SDS011;10525;50.154;8.198;2022-08-03T01:06:59;2.85;;;2.65;;
20727;SDS011;10525;50.154;8.198;2022-08-03T01:09:39;2.60;;;2.50;;
20727;SDS011;10525;50.154;8.198;2022-08-03T01:12:15;2.70;;;2.50;;
20727;SDS011;10525;50.154;8.198;2022-08-03T01:14:48;2.58;;;2.58;;
20727;SDS011;10525;50.154;8.198;2022-08-03T01:17:20;2.53;;;2.53;;
20727;SDS011;10525;50.154;8.198;2022-08-03T01:19:53;2.60;;;2.50;;
20727;SDS011;10525;50.154;8.198;2022-08-03T01:25:31;2.60;;;2.45;;
20727;SDS011;10525;50.154;8.198;2022-08-03T01:28:10;2.58;;;2.50;;
20727;SDS011;10525;50.154;8.198;2022-08-03T01:30:51;2.50;;;2.38;;
20727;SDS011;10525;50.154;8.198;2022-08-03T01:33:21;2.90;;;2.70;;
20727;SDS011;10525;50.154;8.198;2022-08-03T01:35:51;2.50;;;2.40;;
20727;SDS011;10525;50.154;8.198;2022-08-03T01:38:25;2.50;;;2.40;;
20727;SDS011;10525;50.154;8.198;2022-08-03T01:40:54;2.05;;;2.05;;
20727;SDS011;10525;50.154;8.198;2022-08-03T01:43:22;2.45;;;2.35;;
20727;SDS011;10525;50.154;8.198;2022-08-03T01:45:53;2.65;;;2.45;;
20727;SDS011;10525;50.154;8.198;2022-08-03T01:48:21;2.70;;;2.42;;
20727;SDS011;10525;50.154;8.198;2022-08-03T01:50:49;2.75;;;2.55;;
20727;SDS011;10525;50.154;8.198;2022-08-03T01:53:17;2.10;;;2.10;;
20727;SDS011;10525;50.154;8.198;2022-08-03T01:55:46;2.63;;;2.63;;
20727;SDS011;10525;50.154;8.198;2022-08-03T01:58:17;2.70;;;2.60;;
20727;SDS011;10525;50.154;8.198;2022-08-03T02:00:45;2.47;;;2.25;;
20727;SDS011;10525;50.154;8.198;2022-08-03T02:03:15;3.28;;;2.60;;
20727;SDS011;10525;50.154;8.198;2022-08-03T02:05:43;6.38;;;2.67;;
20727;SDS011;10525;50.154;8.198;2022-08-03T02:08:12;3.08;;;2.80;;
20727;SDS011;10525;50.154;8.198;2022-08-03T02:10:41;2.17;;;2.17;;
20727;SDS011;10525;50.154;8.198;2022-08-03T02:13:10;2.92;;;2.83;;
20727;SDS011;10525;50.154;8.198;2022-08-03T02:15:37;2.80;;;2.78;;
20727;SDS011;10525;50.154;8.198;2022-08-03T02:18:06;3.20;;;2.45;;
20727;SDS011;10525;50.154;8.198;2022-08-03T02:20:36;3.70;;;2.63;;
20727;SDS011;10525;50.154;8.198;2022-08-03T02:23:03;2.80;;;2.70;;
20727;SDS011;10525;50.154;8.198;2022-08-03T02:25:31;2.95;;;2.78;;
20727;SDS011;10525;50.154;8.198;2022-08-03T02:28:01;2.70;;;2.60;;
20727;SDS011;10525;50.154;8.198;2022-08-03T02:30:33;3.45;;;2.80;;
20727;SDS011;10525;50.154;8.198;2022-08-03T02:33:02;2.90;;;2.80;;
20727;SDS011;10525;50.154;8.198;2022-08-03T02:35:31;2.80;;;2.70;;
20727;SDS011;10525;50.154;8.198;2022-08-03T02:38:01;3.05;;;2.95;;
20727;SDS011;10525;50.154;8.198;2022-08-03T02:40:30;3.15;;;3.03;;
20727;SDS011;10525;50.154;8.198;2022-08-03T02:42:58;2.88;;;2.65;;
20727;SDS011;10525;50.154;8.198;2022-08-03T02:45:28;3.00;;;2.90;;
20727;SDS011;10525;50.154;8.198;2022-08-03T02:47:57;3.33;;;3.00;;
20727;SDS011;10525;50.154;8.198;2022-08-03T02:50:27;3.20;;;3.10;;
20727;SDS011;10525;50.154;8.198;2022-08-03T02:52:55;6.78;;;3.40;;
20727;SDS011;10525;50.154;8.198;2022-08-03T02:55:26;2.85;;;2.75;;
20727;SDS011;10525;50.154;8.198;2022-08-03T02:57:53;3.35;;;3.10;;
20727;SDS011;10525;50.154;8.198;2022-08-03T03:00:22;3.40;;;3.08;;
20727;SDS011;10525;50.154;8.198;2022-08-03T03:02:49;6.07;;;2.78;;
20727;SDS011;10525;50.154;8.198;2022-08-03T03:05:16;2.75;;;2.70;;
20727;SDS011;10525;50.154;8.198;2022-08-03T03:07:43;3.92;;;3.22;;
20727;SDS011;10525;50.154;8.198;2022-08-03T03:10:11;3.55;;;3.13;;
20727;SDS011;10525;50.154;8.198;2022-08-03T03:12:39;2.90;;;2.80;;
20727;SDS011;10525;50.154;8.198;2022-08-03T03:15:07;3.58;;;3.08;;
20727;SDS011;10525;50.154;8.198;2022-08-03T03:17:35;5.10;;;3.00;;
20727;SDS011;10525;50.154;8.198;2022-08-03T03:20:04;3.85;;;3.58;;
20727;SDS011;10525;50.154;8.198;2022-08-03T03:22:32;3.33;;;3.22;;
20727;SDS011;10525;50.154;8.198;2022-08-03T03:25:00;3.15;;;3.05;;
20727;SDS011;10525;50.154;8.198;2022-08-03T03:27:27;3.25;;;3.15;;
20727;SDS011;10525;50.154;8.198;2022-08-03T03:29:57;3.72;;;3.50;;
20727;SDS011;10525;50.154;8.198;2022-08-03T03:32:25;3.25;;;2.97;;
20727;SDS011;10525;50.154;8.198;2022-08-03T03:34:52;3.30;;;3.08;;
20727;SDS011;10525;50.154;8.198;2022-08-03T03:37:19;3.10;;;2.90;;
20727;SDS011;10525;50.154;8.198;2022-08-03T03:39:46;3.22;;;3.00;;
20727;SDS011;10525;50.154;8.198;2022-08-03T03:42:13;2.83;;;2.58;;
20727;SDS011;10525;50.154;8.198;2022-08-03T03:44:39;2.70;;;2.60;;
20727;SDS011;10525;50.154;8.198;2022-08-03T03:47:07;3.70;;;3.40;;
20727;SDS011;10525;50.154;8.198;2022-08-03T03:49:34;3.30;;;3.05;;
20727;SDS011;10525;50.154;8.198;2022-08-03T03:52:01;3.35;;;3.25;;
20727;SDS011;10525;50.154;8.198;2022-08-03T03:54:37;3.33;;;3.08;;
20727;SDS011;10525;50.154;8.198;2022-08-03T03:57:05;3.75;;;3.30;;
20727;SDS011;10525;50.154;8.198;2022-08-03T03:59:32;3.30;;;3.20;;
20727;SDS011;10525;50.154;8.198;2022-08-03T04:01:58;3.30;;;3.10;;
20727;SDS011;10525;50.154;8.198;2022-08-03T04:04:26;3.28;;;2.97;;
20727;SDS011;10525;50.154;8.198;2022-08-03T04:07:11;3.67;;;3.47;;
20727;SDS011;10525;50.154;8.198;2022-08-03T04:09:55;3.28;;;3.17;;
20727;SDS011;10525;50.154;8.198;2022-08-03T04:12:40;4.13;;;3.72;;
20727;SDS011;10525;50.154;8.198;2022-08-03T04:15:08;3.00;;;2.90;;
20727;SDS011;10525;50.154;8.198;2022-08-03T04:17:37;3.47;;;3.28;;
20727;SDS011;10525;50.154;8.198;2022-08-03T04:20:07;2.90;;;2.80;;
20727;SDS011;10525;50.154;8.198;2022-08-03T04:22:35;3.35;;;3.17;;
20727;SDS011;10525;50.154;8.198;2022-08-03T04:25:04;4.72;;;2.80;;
20727;SDS011;10525;50.154;8.198;2022-08-03T04:27:35;2.97;;;2.83;;
20727;SDS011;10525;50.154;8.198;2022-08-03T04:30:04;5.13;;;3.10;;
20727;SDS011;10525;50.154;8.198;2022-08-03T04:32:32;5.30;;;3.25;;
20727;SDS011;10525;50.154;8.198;2022-08-03T04:35:00;3.30;;;2.80;;
20727;SDS011;10525;50.154;8.198;2022-08-03T04:37:31;3.03;;;2.83;;
20727;SDS011;10525;50.154;8.198;2022-08-03T04:40:04;2.83;;;2.72;;
20727;SDS011;10525;50.154;8.198;2022-08-03T04:42:34;3.00;;;2.83;;
20727;SDS011;10525;50.154;8.198;2022-08-03T04:45:03;2.75;;;2.63;;
20727;SDS011;10525;50.154;8.198;2022-08-03T04:47:31;3.30;;;3.10;;
20727;SDS011;10525;50.154;8.198;2022-08-03T04:49:59;3.00;;;2.90;;
20727;SDS011;10525;50.154;8.198;2022-08-03T04:52:26;3.25;;;2.97;;
20727;SDS011;10525;50.154;8.198;2022-08-03T04:54:55;2.80;;;2.70;;
20727;SDS011;10525;50.154;8.198;2022-08-03T04:57:22;2.80;;;2.60;;
20727;SDS011;10525;50.154;8.198;2022-08-03T04:59:48;3.20;;;3.00;;
20727;SDS011;10525;50.154;8.198;2022-08-03T05:02:18;3.00;;;2.80;;
20727;SDS011;10525;50.154;8.198;2022-08-03T05:04:45;2.90;;;2.47;;
20727;SDS011;10525;50.154;8.198;2022-08-03T05:07:11;3.00;;;2.80;;
20727;SDS011;10525;50.154;8.198;2022-08-03T05:09:38;2.92;;;2.72;;
20727;SDS011;10525;50.154;8.198;2022-08-03T05:12:06;5.20;;;2.92;;
20727;SDS011;10525;50.154;8.198;2022-08-03T05:14:33;2.33;;;2.22;;
20727;SDS011;10525;50.154;8.198;2022-08-03T05:17:01;4.72;;;2.42;;
20727;SDS011;10525;50.154;8.198;2022-08-03T05:19:28;2.95;;;2.20;;
20727;SDS011;10525;50.154;8.198;2022-08-03T05:21:55;2.95;;;2.85;;
20727;SDS011;10525;50.154;8.198;2022-08-03T05:24:22;4.45;;;2.20;;
20727;SDS011;10525;50.154;8.198;2022-08-03T05:26:49;2.17;;;2.15;;
20727;SDS011;10525;50.154;8.198;2022-08-03T05:29:17;2.40;;;2.30;;
20727;SDS011;10525;50.154;8.198;2022-08-03T05:31:43;3.10;;;2.13;;
20727;SDS011;10525;50.154;8.198;2022-08-03T05:34:10;4.20;;;2.42;;
20727;SDS011;10525;50.154;8.198;2022-08-03T05:36:37;2.75;;;2.65;;
20727;SDS011;10525;50.154;8.198;2022-08-03T05:39:03;3.42;;;2.30;;
20727;SDS011;10525;50.154;8.198;2022-08-03T05:41:30;2.30;;;2.20;;
20727;SDS011;10525;50.154;8.198;2022-08-03T05:43:57;2.15;;;2.05;;
20727;SDS011;10525;50.154;8.198;2022-08-03T05:46:25;5.25;;;2.22;;
20727;SDS011;10525;50.154;8.198;2022-08-03T05:48:51;2.13;;;2.03;;
20727;SDS011;10525;50.154;8.198;2022-08-03T05:51:18;2.13;;;2.08;;
20727;SDS011;10525;50.154;8.198;2022-08-03T05:53:45;4.57;;;2.40;;
20727;SDS011;10525;50.154;8.198;2022-08-03T05:56:12;2.10;;;2.10;;
20727;SDS011;10525;50.154;8.198;2022-08-03T05:58:38;2.42;;;2.22;;
20727;SDS011;10525;50.154;8.198;2022-08-03T06:01:05;2.35;;;2.25;;
20727;SDS011;10525;50.154;8.198;2022-08-03T06:03:33;3.95;;;2.15;;
20727;SDS011;10525;50.154;8.198;2022-08-03T06:06:00;2.20;;;2.20;;
20727;SDS011;10525;50.154;8.198;2022-08-03T06:08:26;2.13;;;2.03;;
20727;SDS011;10525;50.154;8.198;2022-08-03T06:10:53;6.60;;;2.60;;
20727;SDS011;10525;50.154;8.198;2022-08-03T06:13:20;2.17;;;2.08;;
20727;SDS011;10525;50.154;8.198;2022-08-03T06:15:47;2.38;;;1.95;;
20727;SDS011;10525;50.154;8.198;2022-08-03T06:18:13;2.20;;;2.13;;
20727;SDS011;10525;50.154;8.198;2022-08-03T06:20:41;1.83;;;1.83;;
20727;SDS011;10525;50.154;8.198;2022-08-03T06:23:08;3.13;;;1.88;;
20727;SDS011;10525;50.154;8.198;2022-08-03T06:25:35;2.15;;;2.15;;
20727;SDS011;10525;50.154;8.198;2022-08-03T06:28:01;1.90;;;1.80;;
20727;SDS011;10525;50.154;8.198;2022-08-03T06:30:29;1.85;;;1.85;;
20727;SDS011;10525;50.154;8.198;2022-08-03T06:32:56;2.40;;;1.90;;
20727;SDS011;10525;50.154;8.198;2022-08-03T06:35:22;3.90;;;1.85;;
20727;SDS011;10525;50.154;8.198;2022-08-03T06:37:53;1.92;;;1.85;;
20727;SDS011;10525;50.154;8.198;2022-08-03T06:40:20;1.90;;;1.80;;
20727;SDS011;10525;50.154;8.198;2022-08-03T06:42:53;2.42;;;2.22;;
20727;SDS011;10525;50.154;8.198;2022-08-03T06:45:19;1.95;;;1.95;;
20727;SDS011;10525;50.154;8.198;2022-08-03T06:47:46;2.15;;;2.03;;
20727;SDS011;10525;50.154;8.198;2022-08-03T06:50:13;1.75;;;1.75;;
20727;SDS011;10525;50.154;8.198;2022-08-03T06:52:40;2.17;;;1.95;;
20727;SDS011;10525;50.154;8.198;2022-08-03T06:55:08;2.40;;;2.30;;
20727;SDS011;10525;50.154;8.198;2022-08-03T06:57:35;5.05;;;1.70;;
20727;SDS011;10525;50.154;8.198;2022-08-03T07:00:02;1.98;;;1.98;;
20727;SDS011;10525;50.154;8.198;2022-08-03T07:02:29;4.63;;;1.85;;
20727;SDS011;10525;50.154;8.198;2022-08-03T07:04:56;2.00;;;1.98;;
20727;SDS011;10525;50.154;8.198;2022-08-03T07:07:23;1.80;;;1.80;;
20727;SDS011;10525;50.154;8.198;2022-08-03T07:09:50;2.67;;;2.00;;
20727;SDS011;10525;50.154;8.198;2022-08-03T07:12:18;2.20;;;2.10;;
20727;SDS011;10525;50.154;8.198;2022-08-03T07:14:44;1.83;;;1.73;;
20727;SDS011;10525;50.154;8.198;2022-08-03T07:17:11;3.33;;;2.08;;
20727;SDS011;10525;50.154;8.198;2022-08-03T07:19:38;1.95;;;1.85;;
20727;SDS011;10525;50.154;8.198;2022-08-03T07:22:04;1.50;;;1.50;;
20727;SDS011;10525;50.154;8.198;2022-08-03T07:24:32;2.10;;;2.00;;
20727;SDS011;10525;50.154;8.198;2022-08-03T07:26:59;1.80;;;1.80;;
20727;SDS011;10525;50.154;8.198;2022-08-03T07:29:27;1.95;;;1.85;;
20727;SDS011;10525;50.154;8.198;2022-08-03T07:31:54;2.03;;;1.90;;
20727;SDS011;10525;50.154;8.198;2022-08-03T07:34:21;3.70;;;1.80;;
20727;SDS011;10525;50.154;8.198;2022-08-03T07:36:47;1.48;;;1.48;;
20727;SDS011;10525;50.154;8.198;2022-08-03T07:39:14;2.45;;;1.65;;
20727;SDS011;10525;50.154;8.198;2022-08-03T07:41:41;1.65;;;1.65;;
20727;SDS011;10525;50.154;8.198;2022-08-03T07:44:10;1.92;;;1.77;;
20727;SDS011;10525;50.154;8.198;2022-08-03T07:46:39;3.03;;;2.05;;
20727;SDS011;10525;50.154;8.198;2022-08-03T07:49:05;1.73;;;1.73;;
20727;SDS011;10525;50.154;8.198;2022-08-03T07:51:32;2.00;;;2.00;;
20727;SDS011;10525;50.154;8.198;2022-08-03T07:53:59;1.85;;;1.75;;
20727;SDS011;10525;50.154;8.198;2022-08-03T07:56:25;1.80;;;1.80;;
20727;SDS011;10525;50.154;8.198;2022-08-03T07:58:53;1.73;;;1.73;;
20727;SDS011;10525;50.154;8.198;2022-08-03T08:01:20;1.70;;;1.70;;
20727;SDS011;10525;50.154;8.198;2022-08-03T08:03:49;1.90;;;1.80;;
20727;SDS011;10525;50.154;8.198;2022-08-03T08:06:16;1.80;;;1.80;;
20727;SDS011;10525;50.154;8.198;2022-08-03T08:08:43;1.70;;;1.70;;
20727;SDS011;10525;50.154;8.198;2022-08-03T08:11:10;5.10;;;1.67;;
20727;SDS011;10525;50.154;8.198;2022-08-03T08:13:36;1.90;;;1.80;;
20727;SDS011;10525;50.154;8.198;2022-08-03T08:16:03;6.90;;;1.95;;
20727;SDS011;10525;50.154;8.198;2022-08-03T08:18:30;1.98;;;1.88;;
20727;SDS011;10525;50.154;8.198;2022-08-03T08:20:59;1.85;;;1.85;;
20727;SDS011;10525;50.154;8.198;2022-08-03T08:23:27;3.83;;;1.73;;
20727;SDS011;10525;50.154;8.198;2022-08-03T08:25:54;2.03;;;2.00;;
20727;SDS011;10525;50.154;8.198;2022-08-03T08:28:21;1.90;;;1.80;;
20727;SDS011;10525;50.154;8.198;2022-08-03T08:30:48;1.92;;;1.92;;
20727;SDS011;10525;50.154;8.198;2022-08-03T08:33:15;1.70;;;1.70;;
20727;SDS011;10525;50.154;8.198;2022-08-03T08:35:41;1.80;;;1.70;;
20727;SDS011;10525;50.154;8.198;2022-08-03T08:38:09;1.52;;;1.52;;
20727;SDS011;10525;50.154;8.198;2022-08-03T08:40:36;4.90;;;1.60;;
20727;SDS011;10525;50.154;8.198;2022-08-03T08:43:03;1.52;;;1.52;;
20727;SDS011;10525;50.154;8.198;2022-08-03T08:45:29;1.65;;;1.55;;
20727;SDS011;10525;50.154;8.198;2022-08-03T08:47:56;1.90;;;1.80;;
20727;SDS011;10525;50.154;8.198;2022-08-03T08:50:27;1.83;;;1.73;;
20727;SDS011;10525;50.154;8.198;2022-08-03T08:52:54;1.80;;;1.70;;
20727;SDS011;10525;50.154;8.198;2022-08-03T08:55:25;2.58;;;1.60;;
20727;SDS011;10525;50.154;8.198;2022-08-03T08:57:54;1.40;;;1.40;;
20727;SDS011;10525;50.154;8.198;2022-08-03T09:00:24;3.45;;;1.60;;
20727;SDS011;10525;50.154;8.198;2022-08-03T09:02:50;1.80;;;1.73;;
20727;SDS011;10525;50.154;8.198;2022-08-03T09:05:17;2.95;;;1.60;;
20727;SDS011;10525;50.154;8.198;2022-08-03T09:07:46;1.80;;;1.73;;
20727;SDS011;10525;50.154;8.198;2022-08-03T09:10:13;1.95;;;1.95;;
20727;SDS011;10525;50.154;8.198;2022-08-03T09:12:45;2.28;;;1.60;;
20727;SDS011;10525;50.154;8.198;2022-08-03T09:15:20;2.38;;;2.10;;
20727;SDS011;10525;50.154;8.198;2022-08-03T09:17:50;1.83;;;1.83;;
20727;SDS011;10525;50.154;8.198;2022-08-03T09:20:18;1.73;;;1.73;;
20727;SDS011;10525;50.154;8.198;2022-08-03T09:22:56;3.00;;;1.42;;
20727;SDS011;10525;50.154;8.198;2022-08-03T09:25:30;2.00;;;1.90;;
20727;SDS011;10525;50.154;8.198;2022-08-03T09:28:09;1.50;;;1.50;;
20727;SDS011;10525;50.154;8.198;2022-08-03T09:30:38;1.60;;;1.60;;
20727;SDS011;10525;50.154;8.198;2022-08-03T09:33:06;1.63;;;1.63;;
20727;SDS011;10525;50.154;8.198;2022-08-03T09:35:39;1.70;;;1.70;;
20727;SDS011;10525;50.154;8.198;2022-08-03T09:38:10;5.40;;;1.75;;
20727;SDS011;10525;50.154;8.198;2022-08-03T09:40:37;2.72;;;1.90;;
20727;SDS011;10525;50.154;8.198;2022-08-03T09:43:04;1.77;;;1.67;;
20727;SDS011;10525;50.154;8.198;2022-08-03T09:45:33;1.70;;;1.70;;
20727;SDS011;10525;50.154;8.198;2022-08-03T09:50:46;1.73;;;1.52;;
20727;SDS011;10525;50.154;8.198;2022-08-03T09:53:14;1.50;;;1.50;;
20727;SDS011;10525;50.154;8.198;2022-08-03T09:55:49;1.67;;;1.67;;
20727;SDS011;10525;50.154;8.198;2022-08-03T09:58:16;1.48;;;1.40;;
20727;SDS011;10525;50.154;8.198;2022-08-03T10:00:54;1.70;;;1.70;;
20727;SDS011;10525;50.154;8.198;2022-08-03T10:03:23;1.40;;;1.40;;
20727;SDS011;10525;50.154;8.198;2022-08-03T10:05:51;1.70;;;1.60;;
20727;SDS011;10525;50.154;8.198;2022-08-03T10:08:18;1.80;;;1.70;;
20727;SDS011;10525;50.154;8.198;2022-08-03T10:10:46;2.33;;;1.70;;
20727;SDS011;10525;50.154;8.198;2022-08-03T10:13:15;1.85;;;1.85;;
20727;SDS011;10525;50.154;8.198;2022-08-03T10:15:43;1.70;;;1.70;;
20727;SDS011;10525;50.154;8.198;2022-08-03T10:18:11;2.55;;;1.60;;
20727;SDS011;10525;50.154;8.198;2022-08-03T10:20:40;1.65;;;1.65;;
20727;SDS011;10525;50.154;8.198;2022-08-03T10:23:10;1.58;;;1.58;;
20727;SDS011;10525;50.154;8.198;2022-08-03T10:25:38;1.60;;;1.50;;
20727;SDS011;10525;50.154;8.198;2022-08-03T10:28:08;1.50;;;1.50;;
20727;SDS011;10525;50.154;8.198;2022-08-03T10:30:40;1.75;;;1.70;;
20727;SDS011;10525;50.154;8.198;2022-08-03T10:33:16;2.58;;;1.50;;
20727;SDS011;10525;50.154;8.198;2022-08-03T10:35:45;2.95;;;1.52;;
20727;SDS011;10525;50.154;8.198;2022-08-03T10:38:15;1.50;;;1.50;;
20727;SDS011;10525;50.154;8.198;2022-08-03T10:40:45;1.70;;;1.60;;
20727;SDS011;10525;50.154;8.198;2022-08-03T10:43:17;2.42;;;1.70;;
20727;SDS011;10525;50.154;8.198;2022-08-03T10:45:45;1.80;;;1.80;;
20727;SDS011;10525;50.154;8.198;2022-08-03T10:48:12;1.50;;;1.50;;
20727;SDS011;10525;50.154;8.198;2022-08-03T10:50:41;1.55;;;1.55;;
20727;SDS011;10525;50.154;8.198;2022-08-03T10:53:08;1.85;;;1.75;;
20727;SDS011;10525;50.154;8.198;2022-08-03T10:55:35;1.77;;;1.67;;
20727;SDS011;10525;50.154;8.198;2022-08-03T11:01:17;2.05;;;1.60;;
20727;SDS011;10525;50.154;8.198;2022-08-03T11:06:41;1.52;;;1.48;;
20727;SDS011;10525;50.154;8.198;2022-08-03T11:09:16;2.70;;;1.90;;
20727;SDS011;10525;50.154;8.198;2022-08-03T11:11:44;1.30;;;1.30;;
20727;SDS011;10525;50.154;8.198;2022-08-03T11:14:13;1.88;;;1.77;;
20727;SDS011;10525;50.154;8.198;2022-08-03T11:16:42;5.93;;;1.38;;
20727;SDS011;10525;50.154;8.198;2022-08-03T11:19:11;2.97;;;1.25;;
20727;SDS011;10525;50.154;8.198;2022-08-03T11:27:32;1.90;;;1.50;;
20727;SDS011;10525;50.154;8.198;2022-08-03T11:30:00;1.70;;;1.60;;
20727;SDS011;10525;50.154;8.198;2022-08-03T11:35:19;1.90;;;1.80;;
20727;SDS011;10525;50.154;8.198;2022-08-03T11:38:01;1.65;;;1.60;;
20727;SDS011;10525;50.154;8.198;2022-08-03T11:40:34;1.15;;;1.15;;
20727;SDS011;10525;50.154;8.198;2022-08-03T11:43:05;1.80;;;1.77;;
20727;SDS011;10525;50.154;8.198;2022-08-03T11:45:32;2.08;;;1.95;;
20727;SDS011;10525;50.154;8.198;2022-08-03T11:48:02;1.60;;;1.60;;
20727;SDS011;10525;50.154;8.198;2022-08-03T11:50:39;1.95;;;1.58;;
20727;SDS011;10525;50.154;8.198;2022-08-03T11:53:11;1.35;;;1.35;;
20727;SDS011;10525;50.154;8.198;2022-08-03T11:55:39;1.73;;;1.70;;
20727;SDS011;10525;50.154;8.198;2022-08-03T11:58:13;1.33;;;1.30;;
20727;SDS011;10525;50.154;8.198;2022-08-03T12:00:41;1.70;;;1.60;;
20727;SDS011;10525;50.154;8.198;2022-08-03T12:03:09;1.50;;;1.50;;
20727;SDS011;10525;50.154;8.198;2022-08-03T12:05:39;1.95;;;1.40;;
20727;SDS011;10525;50.154;8.198;2022-08-03T12:08:12;3.17;;;1.88;;
20727;SDS011;10525;50.154;8.198;2022-08-03T12:10:44;1.40;;;1.40;;
20727;SDS011;10525;50.154;8.198;2022-08-03T12:13:12;1.50;;;1.45;;
20727;SDS011;10525;50.154;8.198;2022-08-03T12:15:39;2.17;;;1.35;;
20727;SDS011;10525;50.154;8.198;2022-08-03T12:18:13;2.80;;;1.50;;
20727;SDS011;10525;50.154;8.198;2022-08-03T12:20:42;1.95;;;1.50;;
20727;SDS011;10525;50.154;8.198;2022-08-03T12:23:09;2.60;;;1.40;;
20727;SDS011;10525;50.154;8.198;2022-08-03T12:25:39;1.30;;;1.30;;
20727;SDS011;10525;50.154;8.198;2022-08-03T12:28:09;1.20;;;1.20;;
20727;SDS011;10525;50.154;8.198;2022-08-03T12:30:40;1.90;;;1.55;;
20727;SDS011;10525;50.154;8.198;2022-08-03T12:33:11;2.38;;;1.60;;
20727;SDS011;10525;50.154;8.198;2022-08-03T12:35:39;1.50;;;1.50;;
20727;SDS011;10525;50.154;8.198;2022-08-03T12:38:05;1.45;;;1.27;;
20727;SDS011;10525;50.154;8.198;2022-08-03T12:40:34;1.50;;;1.50;;
20727;SDS011;10525;50.154;8.198;2022-08-03T12:43:04;2.15;;;1.58;;
20727;SDS011;10525;50.154;8.198;2022-08-03T12:45:36;1.98;;;1.60;;
20727;SDS011;10525;50.154;8.198;2022-08-03T12:48:03;1.38;;;1.38;;
20727;SDS011;10525;50.154;8.198;2022-08-03T12:50:35;1.73;;;1.50;;
20727;SDS011;10525;50.154;8.198;2022-08-03T12:53:03;1.73;;;1.67;;
20727;SDS011;10525;50.154;8.198;2022-08-03T12:55:31;1.45;;;1.42;;
20727;SDS011;10525;50.154;8.198;2022-08-03T12:58:02;2.53;;;1.30;;
20727;SDS011;10525;50.154;8.198;2022-08-03T13:00:30;2.28;;;1.60;;
20727;SDS011;10525;50.154;8.198;2022-08-03T13:02:58;1.48;;;1.48;;
20727;SDS011;10525;50.154;8.198;2022-08-03T13:05:26;1.50;;;1.40;;
20727;SDS011;10525;50.154;8.198;2022-08-03T13:07:53;1.45;;;1.40;;
20727;SDS011;10525;50.154;8.198;2022-08-03T13:10:26;3.05;;;1.58;;
20727;SDS011;10525;50.154;8.198;2022-08-03T13:12:54;1.20;;;1.20;;
20727;SDS011;10525;50.154;8.198;2022-08-03T13:15:24;2.33;;;1.20;;
20727;SDS011;10525;50.154;8.198;2022-08-03T13:17:52;1.60;;;1.50;;
20727;SDS011;10525;50.154;8.198;2022-08-03T13:20:19;1.40;;;1.40;;
20727;SDS011;10525;50.154;8.198;2022-08-03T13:22:46;1.42;;;1.35;;
20727;SDS011;10525;50.154;8.198;2022-08-03T13:25:13;6.97;;;1.48;;
20727;SDS011;10525;50.154;8.198;2022-08-03T13:27:40;1.08;;;1.08;;
20727;SDS011;10525;50.154;8.198;2022-08-03T13:30:07;1.30;;;1.30;;
20727;SDS011;10525;50.154;8.198;2022-08-03T13:32:36;5.72;;;1.58;;
20727;SDS011;10525;50.154;8.198;2022-08-03T13:35:03;2.00;;;1.35;;
20727;SDS011;10525;50.154;8.198;2022-08-03T13:37:30;3.72;;;1.45;;
20727;SDS011;10525;50.154;8.198;2022-08-03T13:39:57;1.50;;;1.40;;
20727;SDS011;10525;50.154;8.198;2022-08-03T13:42:24;3.15;;;1.33;;
20727;SDS011;10525;50.154;8.198;2022-08-03T13:44:51;4.13;;;1.10;;
20727;SDS011;10525;50.154;8.198;2022-08-03T13:47:18;1.10;;;1.10;;
20727;SDS011;10525;50.154;8.198;2022-08-03T13:49:46;4.22;;;1.38;;
20727;SDS011;10525;50.154;8.198;2022-08-03T13:52:14;1.20;;;1.15;;
20727;SDS011;10525;50.154;8.198;2022-08-03T13:54:41;1.85;;;1.15;;
20727;SDS011;10525;50.154;8.198;2022-08-03T13:57:08;1.23;;;1.23;;
20727;SDS011;10525;50.154;8.198;2022-08-03T13:59:35;1.40;;;1.30;;
20727;SDS011;10525;50.154;8.198;2022-08-03T14:02:03;1.40;;;1.40;;
20727;SDS011;10525;50.154;8.198;2022-08-03T14:04:30;3.80;;;1.20;;
20727;SDS011;10525;50.154;8.198;2022-08-03T14:06:57;2.08;;;1.20;;
20727;SDS011;10525;50.154;8.198;2022-08-03T14:09:24;1.02;;;1.00;;
20727;SDS011;10525;50.154;8.198;2022-08-03T14:11:51;1.15;;;1.15;;
20727;SDS011;10525;50.154;8.198;2022-08-03T14:14:18;1.33;;;1.20;;
20727;SDS011;10525;50.154;8.198;2022-08-03T14:16:45;3.00;;;1.17;;
20727;SDS011;10525;50.154;8.198;2022-08-03T14:19:12;1.27;;;1.08;;
20727;SDS011;10525;50.154;8.198;2022-08-03T14:21:39;4.38;;;1.20;;
20727;SDS011;10525;50.154;8.198;2022-08-03T14:24:08;1.33;;;1.23;;
20727;SDS011;10525;50.154;8.198;2022-08-03T14:26:34;3.22;;;1.30;;
20727;SDS011;10525;50.154;8.198;2022-08-03T14:29:01;1.40;;;1.27;;
20727;SDS011;10525;50.154;8.198;2022-08-03T14:31:29;1.05;;;1.05;;
20727;SDS011;10525;50.154;8.198;2022-08-03T14:33:55;1.30;;;1.30;;
20727;SDS011;10525;50.154;8.198;2022-08-03T14:36:22;1.55;;;1.45;;
20727;SDS011;10525;50.154;8.198;2022-08-03T14:38:49;1.48;;;1.38;;
20727;SDS011;10525;50.154;8.198;2022-08-03T14:41:17;1.30;;;1.30;;
20727;SDS011;10525;50.154;8.198;2022-08-03T14:43:44;1.20;;;1.20;;
20727;SDS011;10525;50.154;8.198;2022-08-03T14:46:11;1.20;;;1.10;;
20727;SDS011;10525;50.154;8.198;2022-08-03T14:48:37;1.02;;;1.02;;
20727;SDS011;10525;50.154;8.198;2022-08-03T14:51:04;1.10;;;1.10;;
20727;SDS011;10525;50.154;8.198;2022-08-03T14:53:31;1.20;;;1.20;;
20727;SDS011;10525;50.154;8.198;2022-08-03T14:55:58;1.52;;;1.52;;
20727;SDS011;10525;50.154;8.198;2022-08-03T14:58:26;1.65;;;1.10;;
20727;SDS011;10525;50.154;8.198;2022-08-03T15:00:53;4.47;;;1.58;;
20727;SDS011;10525;50.154;8.198;2022-08-03T15:03:21;3.65;;;1.30;;
20727;SDS011;10525;50.154;8.198;2022-08-03T15:05:48;3.13;;;1.10;;
20727;SDS011;10525;50.154;8.198;2022-08-03T15:08:15;5.32;;;1.50;;
20727;SDS011;10525;50.154;8.198;2022-08-03T15:10:42;1.45;;;1.45;;
20727;SDS011;10525;50.154;8.198;2022-08-03T15:13:09;1.17;;;1.17;;
20727;SDS011;10525;50.154;8.198;2022-08-03T15:15:37;1.30;;;1.30;;